Terminal Aerodrome Forecast
Issued by NWS Bismarck, ND

Home | Current Version | Previous Version | Graphics & Text | Print | Product List | Glossary On
Versions: 1 2 3 4 5 6 7 8 9 10 11 12 13 14 15 16 17 18 19 20 21 22 23 24 25 26
000
FTUS43 KBIS 010936 AAA
TAFISN
TAF AMD
KISN 010936Z 0110/0206 03007KT 3SM BR FU BKN050
      TEMPO 0110/0112 2SM BR BKN003
     FM012000 02006KT P6SM SCT050=

USA.gov is the U.S. government's official web portal to all federal, state and local government web resources and services.